sensor_id;sensor_type;location;lat;lon;timestamp;temperature;humidity
55331;DHT22;58851;42.984;20.336;2023-10-31T00:00:19;128.80;6502.40
55331;DHT22;58851;42.984;20.336;2023-10-31T00:02:45;128.70;6502.40
55331;DHT22;58851;42.984;20.336;2023-10-31T00:05:11;128.60;6502.40
55331;DHT22;58851;42.984;20.336;2023-10-31T00:07:37;128.60;6502.40
55331;DHT22;58851;42.984;20.336;2023-10-31T00:10:03;128.60;6502.40
55331;DHT22;58851;42.984;20.336;2023-10-31T00:12:29;128.60;6502.40
55331;DHT22;58851;42.984;20.336;2023-10-31T00:14:55;128.60;6502.40
55331;DHT22;58851;42.984;20.336;2023-10-31T00:17:20;128.50;6502.40
55331;DHT22;58851;42.984;20.336;2023-10-31T00:19:46;128.50;6502.40
55331;DHT22;58851;42.984;20.336;2023-10-31T00:22:15;128.40;6502.40
55331;DHT22;58851;42.984;20.336;2023-10-31T00:24:45;128.40;6502.40
55331;DHT22;58851;42.984;20.336;2023-10-31T00:27:11;128.50;6502.40
55331;DHT22;58851;42.984;20.336;2023-10-31T00:29:37;128.40;6502.40
55331;DHT22;58851;42.984;20.336;2023-10-31T00:32:03;128.40;6502.40
55331;DHT22;58851;42.984;20.336;2023-10-31T00:34:29;128.40;6502.40
55331;DHT22;58851;42.984;20.336;2023-10-31T00:36:54;128.40;6502.40
55331;DHT22;58851;42.984;20.336;2023-10-31T00:39:20;128.30;6502.40
55331;DHT22;58851;42.984;20.336;2023-10-31T00:41:47;128.30;6502.40
55331;DHT22;58851;42.984;20.336;2023-10-31T00:44:13;128.30;6502.40
55331;DHT22;58851;42.984;20.336;2023-10-31T00:46:39;128.30;6502.40
55331;DHT22;58851;42.984;20.336;2023-10-31T00:49:05;128.20;6502.40
55331;DHT22;58851;42.984;20.336;2023-10-31T00:51:31;128.10;6502.40
55331;DHT22;58851;42.984;20.336;2023-10-31T00:53:57;128.20;6502.40
55331;DHT22;58851;42.984;20.336;2023-10-31T00:56:22;128.00;6502.40
55331;DHT22;58851;42.984;20.336;2023-10-31T00:58:48;128.10;6502.40
55331;DHT22;58851;42.984;20.336;2023-10-31T01:01:14;128.00;6502.40
55331;DHT22;58851;42.984;20.336;2023-10-31T01:03:40;128.00;6502.40
55331;DHT22;58851;42.984;20.336;2023-10-31T01:06:06;128.10;6502.40
55331;DHT22;58851;42.984;20.336;2023-10-31T01:08:32;128.10;6502.40
55331;DHT22;58851;42.984;20.336;2023-10-31T01:10:57;128.10;6502.40
55331;DHT22;58851;42.984;20.336;2023-10-31T01:13:23;128.00;6502.40
55331;DHT22;58851;42.984;20.336;2023-10-31T01:15:49;103.20;6476.80
55331;DHT22;58851;42.984;20.336;2023-10-31T01:18:15;103.20;6476.80
55331;DHT22;58851;42.984;20.336;2023-10-31T01:20:41;103.30;6476.80
55331;DHT22;58851;42.984;20.336;2023-10-31T01:23:06;128.00;6502.40
55331;DHT22;58851;42.984;20.336;2023-10-31T01:25:32;128.00;6502.40
55331;DHT22;58851;42.984;20.336;2023-10-31T01:27:58;128.00;6502.40
55331;DHT22;58851;42.984;20.336;2023-10-31T01:30:24;128.00;6502.40
55331;DHT22;58851;42.984;20.336;2023-10-31T01:32:49;128.00;6502.40
55331;DHT22;58851;42.984;20.336;2023-10-31T01:35:15;103.30;6476.80
55331;DHT22;58851;42.984;20.336;2023-10-31T01:37:41;103.30;6476.80
55331;DHT22;58851;42.984;20.336;2023-10-31T01:40:07;103.30;6476.80
55331;DHT22;58851;42.984;20.336;2023-10-31T01:42:33;103.30;6476.80
55331;DHT22;58851;42.984;20.336;2023-10-31T01:44:59;128.00;6502.40
55331;DHT22;58851;42.984;20.336;2023-10-31T01:47:25;103.30;6476.80
55331;DHT22;58851;42.984;20.336;2023-10-31T01:49:52;103.00;6476.80
55331;DHT22;58851;42.984;20.336;2023-10-31T01:52:18;102.90;6476.80
55331;DHT22;58851;42.984;20.336;2023-10-31T01:54:44;102.70;6476.80
55331;DHT22;58851;42.984;20.336;2023-10-31T01:57:10;102.90;6476.80
55331;DHT22;58851;42.984;20.336;2023-10-31T01:59:37;102.90;6476.80
55331;DHT22;58851;42.984;20.336;2023-10-31T02:02:04;103.00;6476.80
55331;DHT22;58851;42.984;20.336;2023-10-31T02:04:30;103.00;6476.80
55331;DHT22;58851;42.984;20.336;2023-10-31T02:06:56;103.10;6476.80
55331;DHT22;58851;42.984;20.336;2023-10-31T02:09:22;103.10;6476.80
55331;DHT22;58851;42.984;20.336;2023-10-31T02:11:50;103.10;6476.80
55331;DHT22;58851;42.984;20.336;2023-10-31T02:14:16;103.10;6476.80
55331;DHT22;58851;42.984;20.336;2023-10-31T02:16:42;103.00;6476.80
55331;DHT22;58851;42.984;20.336;2023-10-31T02:19:08;103.00;6476.80
55331;DHT22;58851;42.984;20.336;2023-10-31T02:21:39;103.10;6476.80
55331;DHT22;58851;42.984;20.336;2023-10-31T02:24:05;103.10;6476.80
55331;DHT22;58851;42.984;20.336;2023-10-31T02:26:32;103.10;6476.80
55331;DHT22;58851;42.984;20.336;2023-10-31T02:28:58;103.10;6476.80
55331;DHT22;58851;42.984;20.336;2023-10-31T02:31:25;103.10;6476.80
55331;DHT22;58851;42.984;20.336;2023-10-31T02:33:51;103.00;6476.80
55331;DHT22;58851;42.984;20.336;2023-10-31T02:36:17;103.10;6476.80
55331;DHT22;58851;42.984;20.336;2023-10-31T02:38:44;103.00;6476.80
55331;DHT22;58851;42.984;20.336;2023-10-31T02:41:09;102.90;6476.80
55331;DHT22;58851;42.984;20.336;2023-10-31T02:43:35;102.90;6476.80
55331;DHT22;58851;42.984;20.336;2023-10-31T02:46:03;103.00;6476.80
55331;DHT22;58851;42.984;20.336;2023-10-31T02:48:28;102.90;6476.80
55331;DHT22;58851;42.984;20.336;2023-10-31T02:50:54;103.00;6476.80
55331;DHT22;58851;42.984;20.336;2023-10-31T02:53:20;103.00;6476.80
55331;DHT22;58851;42.984;20.336;2023-10-31T02:55:46;103.10;6476.80
55331;DHT22;58851;42.984;20.336;2023-10-31T02:58:12;103.00;6476.80
55331;DHT22;58851;42.984;20.336;2023-10-31T03:00:38;102.90;6476.80
55331;DHT22;58851;42.984;20.336;2023-10-31T03:03:04;103.00;6476.80
55331;DHT22;58851;42.984;20.336;2023-10-31T03:05:30;103.00;6476.80
55331;DHT22;58851;42.984;20.336;2023-10-31T03:07:56;102.90;6476.80
55331;DHT22;58851;42.984;20.336;2023-10-31T03:10:22;103.00;6476.80
55331;DHT22;58851;42.984;20.336;2023-10-31T03:12:48;102.90;6476.80
55331;DHT22;58851;42.984;20.336;2023-10-31T03:15:14;102.90;6476.80
55331;DHT22;58851;42.984;20.336;2023-10-31T03:17:41;102.70;6476.80
55331;DHT22;58851;42.984;20.336;2023-10-31T03:20:07;102.70;6476.80
55331;DHT22;58851;42.984;20.336;2023-10-31T03:22:34;102.70;6476.80
55331;DHT22;58851;42.984;20.336;2023-10-31T03:25:00;102.80;6476.80
55331;DHT22;58851;42.984;20.336;2023-10-31T03:27:26;102.80;6476.80
55331;DHT22;58851;42.984;20.336;2023-10-31T03:29:52;102.70;6476.80
55331;DHT22;58851;42.984;20.336;2023-10-31T03:32:18;102.80;6476.80
55331;DHT22;58851;42.984;20.336;2023-10-31T03:34:44;102.80;6476.80
55331;DHT22;58851;42.984;20.336;2023-10-31T03:37:09;102.80;6476.80
55331;DHT22;58851;42.984;20.336;2023-10-31T03:39:35;102.90;6476.80
55331;DHT22;58851;42.984;20.336;2023-10-31T03:42:01;102.90;6476.80
55331;DHT22;58851;42.984;20.336;2023-10-31T03:44:27;102.90;6476.80
55331;DHT22;58851;42.984;20.336;2023-10-31T03:46:55;102.80;6476.80
55331;DHT22;58851;42.984;20.336;2023-10-31T03:49:21;102.80;6476.80
55331;DHT22;58851;42.984;20.336;2023-10-31T03:51:47;102.90;6476.80
55331;DHT22;58851;42.984;20.336;2023-10-31T03:54:13;102.80;6476.80
55331;DHT22;58851;42.984;20.336;2023-10-31T03:56:40;102.80;6476.80
55331;DHT22;58851;42.984;20.336;2023-10-31T03:59:06;102.80;6476.80
55331;DHT22;58851;42.984;20.336;2023-10-31T04:01:32;102.90;6476.80
55331;DHT22;58851;42.984;20.336;2023-10-31T04:03:57;102.90;6476.80
55331;DHT22;58851;42.984;20.336;2023-10-31T04:06:23;102.90;6476.80
55331;DHT22;58851;42.984;20.336;2023-10-31T04:08:49;102.90;6476.80
55331;DHT22;58851;42.984;20.336;2023-10-31T04:11:15;102.80;6476.80
55331;DHT22;58851;42.984;20.336;2023-10-31T04:13:40;102.70;6476.80
55331;DHT22;58851;42.984;20.336;2023-10-31T04:16:07;102.70;6476.80
55331;DHT22;58851;42.984;20.336;2023-10-31T04:18:32;102.80;6476.80
55331;DHT22;58851;42.984;20.336;2023-10-31T04:20:59;102.70;6476.80
55331;DHT22;58851;42.984;20.336;2023-10-31T04:23:25;102.80;6476.80
55331;DHT22;58851;42.984;20.336;2023-10-31T04:25:51;102.80;6476.80
55331;DHT22;58851;42.984;20.336;2023-10-31T04:28:18;102.80;6476.80
55331;DHT22;58851;42.984;20.336;2023-10-31T04:30:44;102.80;6476.80
55331;DHT22;58851;42.984;20.336;2023-10-31T04:33:09;102.80;6476.80
55331;DHT22;58851;42.984;20.336;2023-10-31T04:35:35;102.90;6476.80
55331;DHT22;58851;42.984;20.336;2023-10-31T04:38:01;102.90;6476.80
55331;DHT22;58851;42.984;20.336;2023-10-31T04:40:27;102.90;6476.80
55331;DHT22;58851;42.984;20.336;2023-10-31T04:42:53;103.00;6476.80
55331;DHT22;58851;42.984;20.336;2023-10-31T04:45:19;103.00;6476.80
55331;DHT22;58851;42.984;20.336;2023-10-31T04:47:45;103.00;6476.80
55331;DHT22;58851;42.984;20.336;2023-10-31T04:50:11;103.00;6476.80
55331;DHT22;58851;42.984;20.336;2023-10-31T04:52:37;102.90;6476.80
55331;DHT22;58851;42.984;20.336;2023-10-31T04:55:03;103.10;6476.80
55331;DHT22;58851;42.984;20.336;2023-10-31T04:57:29;103.10;6476.80
55331;DHT22;58851;42.984;20.336;2023-10-31T04:59:54;103.10;6476.80
55331;DHT22;58851;42.984;20.336;2023-10-31T05:02:22;103.20;6476.80
55331;DHT22;58851;42.984;20.336;2023-10-31T05:04:48;103.20;6476.80
55331;DHT22;58851;42.984;20.336;2023-10-31T05:07:17;103.30;6476.80
55331;DHT22;58851;42.984;20.336;2023-10-31T05:09:43;103.30;6476.80
55331;DHT22;58851;42.984;20.336;2023-10-31T05:12:09;128.00;6502.40
55331;DHT22;58851;42.984;20.336;2023-10-31T05:14:35;128.10;6502.40
55331;DHT22;58851;42.984;20.336;2023-10-31T05:17:01;128.10;6502.40
55331;DHT22;58851;42.984;20.336;2023-10-31T05:19:26;128.10;6502.40
55331;DHT22;58851;42.984;20.336;2023-10-31T05:21:52;128.20;6502.40
55331;DHT22;58851;42.984;20.336;2023-10-31T05:24:18;128.20;6502.40
55331;DHT22;58851;42.984;20.336;2023-10-31T05:26:44;128.30;6502.40
55331;DHT22;58851;42.984;20.336;2023-10-31T05:29:13;128.10;6502.40
55331;DHT22;58851;42.984;20.336;2023-10-31T05:31:39;128.20;6502.40
55331;DHT22;58851;42.984;20.336;2023-10-31T05:34:04;128.20;6502.40
55331;DHT22;58851;42.984;20.336;2023-10-31T05:36:30;128.10;6502.40
55331;DHT22;58851;42.984;20.336;2023-10-31T05:38:56;128.20;6502.40
55331;DHT22;58851;42.984;20.336;2023-10-31T05:41:22;128.20;6502.40
55331;DHT22;58851;42.984;20.336;2023-10-31T05:43:48;128.30;6502.40
55331;DHT22;58851;42.984;20.336;2023-10-31T05:46:14;128.40;6502.40
55331;DHT22;58851;42.984;20.336;2023-10-31T05:48:43;128.40;6502.40
55331;DHT22;58851;42.984;20.336;2023-10-31T05:51:19;128.40;6502.40
55331;DHT22;58851;42.984;20.336;2023-10-31T05:53:46;128.50;6502.40
55331;DHT22;58851;42.984;20.336;2023-10-31T05:56:13;128.50;6502.40
55331;DHT22;58851;42.984;20.336;2023-10-31T05:58:40;128.50;6502.40
55331;DHT22;58851;42.984;20.336;2023-10-31T06:01:06;128.60;6502.40
55331;DHT22;58851;42.984;20.336;2023-10-31T06:03:33;128.60;6502.40
55331;DHT22;58851;42.984;20.336;2023-10-31T06:05:59;128.70;6502.40
55331;DHT22;58851;42.984;20.336;2023-10-31T06:08:25;128.80;6502.40
55331;DHT22;58851;42.984;20.336;2023-10-31T06:10:55;128.80;6502.40
55331;DHT22;58851;42.984;20.336;2023-10-31T06:13:21;128.90;6502.40
55331;DHT22;58851;42.984;20.336;2023-10-31T06:15:47;153.60;6502.40
55331;DHT22;58851;42.984;20.336;2023-10-31T06:18:13;153.60;6502.40
55331;DHT22;58851;42.984;20.336;2023-10-31T06:20:39;153.60;6502.40
55331;DHT22;58851;42.984;20.336;2023-10-31T06:23:05;153.60;6502.40
55331;DHT22;58851;42.984;20.336;2023-10-31T06:25:31;153.60;6502.40
55331;DHT22;58851;42.984;20.336;2023-10-31T06:27:57;153.60;6502.40
55331;DHT22;58851;42.984;20.336;2023-10-31T06:30:23;153.70;6502.40
55331;DHT22;58851;42.984;20.336;2023-10-31T06:32:53;153.80;6502.40
55331;DHT22;58851;42.984;20.336;2023-10-31T06:35:19;153.90;6502.40
55331;DHT22;58851;42.984;20.336;2023-10-31T06:37:45;153.90;6502.40
55331;DHT22;58851;42.984;20.336;2023-10-31T06:40:11;153.90;6502.40
55331;DHT22;58851;42.984;20.336;2023-10-31T06:42:36;153.80;6502.40
55331;DHT22;58851;42.984;20.336;2023-10-31T06:45:03;153.90;6502.40
55331;DHT22;58851;42.984;20.336;2023-10-31T06:47:29;153.90;6502.40
55331;DHT22;58851;42.984;20.336;2023-10-31T06:49:55;153.80;6502.40
55331;DHT22;58851;42.984;20.336;2023-10-31T06:52:21;153.90;6502.40
55331;DHT22;58851;42.984;20.336;2023-10-31T06:54:47;154.00;6502.40
55331;DHT22;58851;42.984;20.336;2023-10-31T06:57:13;154.00;6502.40
55331;DHT22;58851;42.984;20.336;2023-10-31T06:59:40;154.10;6502.40
55331;DHT22;58851;42.984;20.336;2023-10-31T07:02:07;154.20;6502.40
55331;DHT22;58851;42.984;20.336;2023-10-31T07:04:32;154.30;6502.40
55331;DHT22;58851;42.984;20.336;2023-10-31T07:06:58;154.30;6502.40
55331;DHT22;58851;42.984;20.336;2023-10-31T07:09:25;154.30;6502.40
55331;DHT22;58851;42.984;20.336;2023-10-31T07:11:51;154.40;6502.40
55331;DHT22;58851;42.984;20.336;2023-10-31T07:14:17;154.40;6502.40
55331;DHT22;58851;42.984;20.336;2023-10-31T07:16:43;154.40;6502.40
55331;DHT22;58851;42.984;20.336;2023-10-31T07:19:12;154.50;6502.40
55331;DHT22;58851;42.984;20.336;2023-10-31T07:21:38;179.20;6502.40
55331;DHT22;58851;42.984;20.336;2023-10-31T07:24:04;179.20;6502.40
55331;DHT22;58851;42.984;20.336;2023-10-31T07:26:30;179.40;6502.40
55331;DHT22;58851;42.984;20.336;2023-10-31T07:28:56;179.30;6502.40
55331;DHT22;58851;42.984;20.336;2023-10-31T07:31:22;179.50;6502.40
55331;DHT22;58851;42.984;20.336;2023-10-31T07:33:47;179.50;6502.40
55331;DHT22;58851;42.984;20.336;2023-10-31T07:36:13;179.70;6502.40
55331;DHT22;58851;42.984;20.336;2023-10-31T07:38:39;179.80;6502.40
55331;DHT22;58851;42.984;20.336;2023-10-31T07:41:05;179.90;6502.40
55331;DHT22;58851;42.984;20.336;2023-10-31T07:43:31;180.00;6502.40
55331;DHT22;58851;42.984;20.336;2023-10-31T07:45:56;204.80;6502.40
55331;DHT22;58851;42.984;20.336;2023-10-31T07:48:22;204.80;6502.40
55331;DHT22;58851;42.984;20.336;2023-10-31T07:50:48;179.90;6502.40
55331;DHT22;58851;42.984;20.336;2023-10-31T07:53:14;204.80;6502.40
55331;DHT22;58851;42.984;20.336;2023-10-31T07:55:40;204.80;6502.40
55331;DHT22;58851;42.984;20.336;2023-10-31T07:58:05;204.90;6502.40
55331;DHT22;58851;42.984;20.336;2023-10-31T08:00:31;204.90;6502.40
55331;DHT22;58851;42.984;20.336;2023-10-31T08:02:58;205.00;6502.40
55331;DHT22;58851;42.984;20.336;2023-10-31T08:05:24;205.20;6502.40
55331;DHT22;58851;42.984;20.336;2023-10-31T08:07:51;205.30;6502.40
55331;DHT22;58851;42.984;20.336;2023-10-31T08:10:17;205.40;6502.40
55331;DHT22;58851;42.984;20.336;2023-10-31T08:12:43;205.50;6502.40
55331;DHT22;58851;42.984;20.336;2023-10-31T08:15:09;205.60;6502.40
55331;DHT22;58851;42.984;20.336;2023-10-31T08:17:35;205.60;6502.40
55331;DHT22;58851;42.984;20.336;2023-10-31T08:20:01;230.40;6502.40
55331;DHT22;58851;42.984;20.336;2023-10-31T08:22:29;230.50;6502.40
55331;DHT22;58851;42.984;20.336;2023-10-31T08:24:55;230.60;6502.40
55331;DHT22;58851;42.984;20.336;2023-10-31T08:27:20;230.80;6502.40
55331;DHT22;58851;42.984;20.336;2023-10-31T08:29:47;231.00;6502.40
55331;DHT22;58851;42.984;20.336;2023-10-31T08:32:13;231.20;6502.40
55331;DHT22;58851;42.984;20.336;2023-10-31T08:34:38;231.30;6502.40
55331;DHT22;58851;42.984;20.336;2023-10-31T08:37:04;256.00;6502.40
55331;DHT22;58851;42.984;20.336;2023-10-31T08:39:30;256.00;6502.40
55331;DHT22;58851;42.984;20.336;2023-10-31T08:41:57;256.00;6502.40
55331;DHT22;58851;42.984;20.336;2023-10-31T08:44:25;256.00;6502.40
55331;DHT22;58851;42.984;20.336;2023-10-31T08:46:51;256.50;6502.40
55331;DHT22;58851;42.984;20.336;2023-10-31T08:49:17;256.60;6502.40
55331;DHT22;58851;42.984;20.336;2023-10-31T08:51:43;256.70;6502.40
55331;DHT22;58851;42.984;20.336;2023-10-31T08:54:09;281.70;6528.00
55331;DHT22;58851;42.984;20.336;2023-10-31T08:56:35;281.80;6528.00
55331;DHT22;58851;42.984;20.336;2023-10-31T09:31:19;281.70;6528.00
55331;DHT22;58851;42.984;20.336;2023-10-31T09:33:47;282.30;6528.00
55331;DHT22;58851;42.984;20.336;2023-10-31T09:36:13;282.20;6528.00
55331;DHT22;58851;42.984;20.336;2023-10-31T09:38:40;282.20;6528.00
55331;DHT22;58851;42.984;20.336;2023-10-31T09:41:06;282.20;6528.00
55331;DHT22;58851;42.984;20.336;2023-10-31T09:43:32;282.20;6528.00
55331;DHT22;58851;42.984;20.336;2023-10-31T09:45:58;282.20;6528.00
55331;DHT22;58851;42.984;20.336;2023-10-31T09:48:26;282.10;6528.00
55331;DHT22;58851;42.984;20.336;2023-10-31T09:50:52;281.80;6528.00
55331;DHT22;58851;42.984;20.336;2023-10-31T09:53:19;281.60;6528.00
55331;DHT22;58851;42.984;20.336;2023-10-31T09:55:46;256.80;6502.40
55331;DHT22;58851;42.984;20.336;2023-10-31T09:58:12;256.60;6502.40
55331;DHT22;58851;42.984;20.336;2023-10-31T10:00:38;256.60;6502.40
55331;DHT22;58851;42.984;20.336;2023-10-31T10:03:08;256.60;6502.40
55331;DHT22;58851;42.984;20.336;2023-10-31T10:05:39;256.80;6502.40
55331;DHT22;58851;42.984;20.336;2023-10-31T10:08:06;256.90;6502.40
55331;DHT22;58851;42.984;20.336;2023-10-31T10:10:33;281.60;6528.00
55331;DHT22;58851;42.984;20.336;2023-10-31T10:12:59;281.70;6528.00
55331;DHT22;58851;42.984;20.336;2023-10-31T10:15:28;281.90;6528.00
55331;DHT22;58851;42.984;20.336;2023-10-31T10:17:54;282.00;6528.00
55331;DHT22;58851;42.984;20.336;2023-10-31T10:20:20;282.00;6528.00
55331;DHT22;58851;42.984;20.336;2023-10-31T10:22:46;282.00;6528.00
55331;DHT22;58851;42.984;20.336;2023-10-31T10:25:14;282.20;6528.00
55331;DHT22;58851;42.984;20.336;2023-10-31T10:27:47;282.30;6528.00
55331;DHT22;58851;42.984;20.336;2023-10-31T10:30:14;282.50;6528.00
55331;DHT22;58851;42.984;20.336;2023-10-31T10:32:40;307.30;128.00
55331;DHT22;58851;42.984;20.336;2023-10-31T10:35:07;307.50;128.00
55331;DHT22;58851;42.984;20.336;2023-10-31T10:37:37;307.60;128.00
55331;DHT22;58851;42.984;20.336;2023-10-31T10:40:05;307.60;128.00
55331;DHT22;58851;42.984;20.336;2023-10-31T10:42:33;307.60;128.00
55331;DHT22;58851;42.984;20.336;2023-10-31T10:45:04;307.40;128.00
55331;DHT22;58851;42.984;20.336;2023-10-31T10:47:33;307.50;128.00
55331;DHT22;58851;42.984;20.336;2023-10-31T10:50:00;307.70;128.00
55331;DHT22;58851;42.984;20.336;2023-10-31T10:55:11;307.80;128.00
55331;DHT22;58851;42.984;20.336;2023-10-31T11:00:24;308.10;128.00
55331;DHT22;58851;42.984;20.336;2023-10-31T11:02:52;308.10;128.00
55331;DHT22;58851;42.984;20.336;2023-10-31T11:05:18;332.80;128.00
55331;DHT22;58851;42.984;20.336;2023-10-31T11:07:45;333.00;128.00
55331;DHT22;58851;42.984;20.336;2023-10-31T11:10:12;333.30;128.00
55331;DHT22;58851;42.984;20.336;2023-10-31T11:12:38;333.30;128.00
55331;DHT22;58851;42.984;20.336;2023-10-31T11:15:09;333.30;128.00
55331;DHT22;58851;42.984;20.336;2023-10-31T11:17:37;333.10;128.00
55331;DHT22;58851;42.984;20.336;2023-10-31T11:20:04;333.20;128.00
55331;DHT22;58851;42.984;20.336;2023-10-31T11:22:44;333.30;128.00
55331;DHT22;58851;42.984;20.336;2023-10-31T11:25:14;333.30;128.00
55331;DHT22;58851;42.984;20.336;2023-10-31T11:27:40;333.40;128.00
55331;DHT22;58851;42.984;20.336;2023-10-31T12:01:14;333.70;128.00
55331;DHT22;58851;42.984;20.336;2023-10-31T12:03:43;384.30;128.00
55331;DHT22;58851;42.984;20.336;2023-10-31T12:06:16;384.60;128.00
55331;DHT22;58851;42.984;20.336;2023-10-31T12:08:44;384.80;128.00
55331;DHT22;58851;42.984;20.336;2023-10-31T12:11:21;384.80;128.00
55331;DHT22;58851;42.984;20.336;2023-10-31T12:13:54;384.80;128.00
55331;DHT22;58851;42.984;20.336;2023-10-31T12:16:24;409.60;128.00
55331;DHT22;58851;42.984;20.336;2023-10-31T12:19:04;409.60;128.00
55331;DHT22;58851;42.984;20.336;2023-10-31T12:21:43;409.80;128.00
55331;DHT22;58851;42.984;20.336;2023-10-31T12:24:16;409.70;128.00
55331;DHT22;58851;42.984;20.336;2023-10-31T12:26:43;409.90;128.00
55331;DHT22;58851;42.984;20.336;2023-10-31T12:29:17;435.30;128.00
55331;DHT22;58851;42.984;20.336;2023-10-31T12:31:51;435.90;128.00
55331;DHT22;58851;42.984;20.336;2023-10-31T12:34:22;461.10;128.00
55331;DHT22;58851;42.984;20.336;2023-10-31T12:36:53;461.60;128.00
55331;DHT22;58851;42.984;20.336;2023-10-31T12:39:24;486.40;128.00
55331;DHT22;58851;42.984;20.336;2023-10-31T12:41:51;486.60;128.00
55331;DHT22;58851;42.984;20.336;2023-10-31T12:44:24;486.70;128.00
55331;DHT22;58851;42.984;20.336;2023-10-31T12:46:52;486.80;128.00
55331;DHT22;58851;42.984;20.336;2023-10-31T12:49:19;487.00;128.00
55331;DHT22;58851;42.984;20.336;2023-10-31T12:51:58;487.10;128.00
55331;DHT22;58851;42.984;20.336;2023-10-31T12:54:37;487.10;128.00
55331;DHT22;58851;42.984;20.336;2023-10-31T12:57:07;487.10;128.00
55331;DHT22;58851;42.984;20.336;2023-10-31T12:59:35;487.10;128.00
55331;DHT22;58851;42.984;20.336;2023-10-31T13:02:05;487.00;128.00
55331;DHT22;58851;42.984;20.336;2023-10-31T13:04:32;487.00;128.00
55331;DHT22;58851;42.984;20.336;2023-10-31T13:09:31;487.20;128.00
55331;DHT22;58851;42.984;20.336;2023-10-31T13:12:02;487.10;128.00
55331;DHT22;58851;42.984;20.336;2023-10-31T13:14:28;487.10;128.00
55331;DHT22;58851;42.984;20.336;2023-10-31T13:16:54;487.10;128.00
55331;DHT22;58851;42.984;20.336;2023-10-31T13:19:20;487.10;128.00
55331;DHT22;58851;42.984;20.336;2023-10-31T13:21:47;487.10;128.00
55331;DHT22;58851;42.984;20.336;2023-10-31T13:24:13;487.10;128.00
55331;DHT22;58851;42.984;20.336;2023-10-31T13:26:39;487.20;128.00
55331;DHT22;58851;42.984;20.336;2023-10-31T13:29:05;487.20;128.00
55331;DHT22;58851;42.984;20.336;2023-10-31T13:31:30;487.20;128.00
55331;DHT22;58851;42.984;20.336;2023-10-31T13:33:56;487.20;128.00
55331;DHT22;58851;42.984;20.336;2023-10-31T13:36:22;487.20;128.00
55331;DHT22;58851;42.984;20.336;2023-10-31T13:38:48;487.30;128.00
55331;DHT22;58851;42.984;20.336;2023-10-31T13:41:14;512.00;128.00
55331;DHT22;58851;42.984;20.336;2023-10-31T13:43:40;512.00;128.00
55331;DHT22;58851;42.984;20.336;2023-10-31T13:46:06;512.10;128.00
55331;DHT22;58851;42.984;20.336;2023-10-31T13:48:32;512.70;128.00
55331;DHT22;58851;42.984;20.336;2023-10-31T13:50:58;537.60;128.00
55331;DHT22;58851;42.984;20.336;2023-10-31T13:53:23;537.80;128.00
55331;DHT22;58851;42.984;20.336;2023-10-31T13:55:49;538.00;128.00
55331;DHT22;58851;42.984;20.336;2023-10-31T13:58:15;538.50;128.00
55331;DHT22;58851;42.984;20.336;2023-10-31T14:00:43;563.20;128.00
55331;DHT22;58851;42.984;20.336;2023-10-31T14:03:11;538.40;128.00
55331;DHT22;58851;42.984;20.336;2023-10-31T14:05:36;538.20;128.00
55331;DHT22;58851;42.984;20.336;2023-10-31T14:08:04;538.00;128.00
55331;DHT22;58851;42.984;20.336;2023-10-31T14:10:30;538.00;128.00
55331;DHT22;58851;42.984;20.336;2023-10-31T14:12:56;537.80;128.00
55331;DHT22;58851;42.984;20.336;2023-10-31T14:15:22;537.60;128.00
55331;DHT22;58851;42.984;20.336;2023-10-31T14:17:52;537.60;128.00
55331;DHT22;58851;42.984;20.336;2023-10-31T14:20:18;512.90;128.00
55331;DHT22;58851;42.984;20.336;2023-10-31T14:22:48;512.70;128.00
55331;DHT22;58851;42.984;20.336;2023-10-31T14:25:14;512.60;128.00
55331;DHT22;58851;42.984;20.336;2023-10-31T14:27:41;512.50;128.00
55331;DHT22;58851;42.984;20.336;2023-10-31T14:30:08;512.40;128.00
55331;DHT22;58851;42.984;20.336;2023-10-31T14:32:34;512.30;128.00
55331;DHT22;58851;42.984;20.336;2023-10-31T14:35:00;512.30;128.00
55331;DHT22;58851;42.984;20.336;2023-10-31T14:37:27;512.20;128.00
55331;DHT22;58851;42.984;20.336;2023-10-31T14:39:53;512.20;128.00
55331;DHT22;58851;42.984;20.336;2023-10-31T14:42:20;512.20;128.00
55331;DHT22;58851;42.984;20.336;2023-10-31T14:44:46;512.10;128.00
55331;DHT22;58851;42.984;20.336;2023-10-31T14:47:12;512.10;128.00
55331;DHT22;58851;42.984;20.336;2023-10-31T14:49:38;512.10;128.00
55331;DHT22;58851;42.984;20.336;2023-10-31T14:52:04;487.30;128.00
55331;DHT22;58851;42.984;20.336;2023-10-31T14:54:32;487.30;128.00
55331;DHT22;58851;42.984;20.336;2023-10-31T14:56:57;487.20;128.00
55331;DHT22;58851;42.984;20.336;2023-10-31T14:59:23;487.10;128.00
55331;DHT22;58851;42.984;20.336;2023-10-31T15:01:49;487.20;128.00
55331;DHT22;58851;42.984;20.336;2023-10-31T15:04:15;487.10;128.00
55331;DHT22;58851;42.984;20.336;2023-10-31T15:06:42;487.20;128.00
55331;DHT22;58851;42.984;20.336;2023-10-31T15:09:09;487.10;128.00
55331;DHT22;58851;42.984;20.336;2023-10-31T15:11:35;487.10;128.00
55331;DHT22;58851;42.984;20.336;2023-10-31T15:14:01;487.00;128.00
55331;DHT22;58851;42.984;20.336;2023-10-31T15:16:28;487.00;128.00
55331;DHT22;58851;42.984;20.336;2023-10-31T15:18:53;486.90;128.00
55331;DHT22;58851;42.984;20.336;2023-10-31T15:21:19;486.90;128.00
55331;DHT22;58851;42.984;20.336;2023-10-31T15:23:46;486.70;128.00
55331;DHT22;58851;42.984;20.336;2023-10-31T15:26:11;486.70;128.00
55331;DHT22;58851;42.984;20.336;2023-10-31T15:28:44;486.60;128.00
55331;DHT22;58851;42.984;20.336;2023-10-31T15:31:10;461.70;128.00
55331;DHT22;58851;42.984;20.336;2023-10-31T15:33:36;461.70;128.00
55331;DHT22;58851;42.984;20.336;2023-10-31T15:36:02;461.60;128.00
55331;DHT22;58851;42.984;20.336;2023-10-31T15:38:28;461.50;128.00
55331;DHT22;58851;42.984;20.336;2023-10-31T15:40:54;461.40;128.00
55331;DHT22;58851;42.984;20.336;2023-10-31T15:43:20;461.40;128.00
55331;DHT22;58851;42.984;20.336;2023-10-31T15:45:46;461.30;128.00